sensor_id;sensor_type;location;lat;lon;timestamp;temperature;humidity
25208;DHT22;13153;52.316;21.166;2023-12-20T00:01:37;6.90;99.90
25208;DHT22;13153;52.316;21.166;2023-12-20T00:04:03;7.00;99.90
25208;DHT22;13153;52.316;21.166;2023-12-20T00:06:29;7.00;99.90
25208;DHT22;13153;52.316;21.166;2023-12-20T00:08:56;7.00;99.90
25208;DHT22;13153;52.316;21.166;2023-12-20T00:11:23;7.00;99.90
25208;DHT22;13153;52.316;21.166;2023-12-20T00:13:49;7.00;99.90
25208;DHT22;13153;52.316;21.166;2023-12-20T00:16:15;7.00;99.90
25208;DHT22;13153;52.316;21.166;2023-12-20T00:18:41;7.00;99.90
25208;DHT22;13153;52.316;21.166;2023-12-20T00:21:06;6.90;99.90
25208;DHT22;13153;52.316;21.166;2023-12-20T00:23:32;6.90;99.90
25208;DHT22;13153;52.316;21.166;2023-12-20T00:25:58;7.00;99.90
25208;DHT22;13153;52.316;21.166;2023-12-20T00:28:23;6.90;99.90
25208;DHT22;13153;52.316;21.166;2023-12-20T00:30:49;6.90;99.90
25208;DHT22;13153;52.316;21.166;2023-12-20T00:33:15;6.90;99.90
25208;DHT22;13153;52.316;21.166;2023-12-20T00:35:41;6.90;99.90
25208;DHT22;13153;52.316;21.166;2023-12-20T00:38:06;6.90;99.90
25208;DHT22;13153;52.316;21.166;2023-12-20T00:40:34;6.90;99.90
25208;DHT22;13153;52.316;21.166;2023-12-20T00:43:00;6.90;99.90
25208;DHT22;13153;52.316;21.166;2023-12-20T00:45:25;6.90;99.90
25208;DHT22;13153;52.316;21.166;2023-12-20T00:47:51;7.00;99.90
25208;DHT22;13153;52.316;21.166;2023-12-20T00:50:17;7.00;99.90
25208;DHT22;13153;52.316;21.166;2023-12-20T00:52:43;7.00;99.90
25208;DHT22;13153;52.316;21.166;2023-12-20T00:55:08;7.00;99.90
25208;DHT22;13153;52.316;21.166;2023-12-20T00:57:34;7.00;99.90
25208;DHT22;13153;52.316;21.166;2023-12-20T01:00:00;7.10;99.90
25208;DHT22;13153;52.316;21.166;2023-12-20T01:02:26;7.00;99.90
25208;DHT22;13153;52.316;21.166;2023-12-20T01:04:52;7.00;99.90
25208;DHT22;13153;52.316;21.166;2023-12-20T01:07:17;7.00;99.90
25208;DHT22;13153;52.316;21.166;2023-12-20T01:09:44;7.00;99.90
25208;DHT22;13153;52.316;21.166;2023-12-20T01:12:09;7.00;99.90
25208;DHT22;13153;52.316;21.166;2023-12-20T01:14:35;7.00;99.90
25208;DHT22;13153;52.316;21.166;2023-12-20T01:17:01;7.00;99.90
25208;DHT22;13153;52.316;21.166;2023-12-20T01:19:27;6.90;99.90
25208;DHT22;13153;52.316;21.166;2023-12-20T01:21:54;6.90;99.90
25208;DHT22;13153;52.316;21.166;2023-12-20T01:24:20;6.90;99.90
25208;DHT22;13153;52.316;21.166;2023-12-20T01:26:46;7.00;99.90
25208;DHT22;13153;52.316;21.166;2023-12-20T01:29:12;6.90;99.90
25208;DHT22;13153;52.316;21.166;2023-12-20T01:31:39;6.90;99.90
25208;DHT22;13153;52.316;21.166;2023-12-20T01:34:08;6.90;99.90
25208;DHT22;13153;52.316;21.166;2023-12-20T01:36:34;6.90;99.90
25208;DHT22;13153;52.316;21.166;2023-12-20T01:38:59;6.90;99.90
25208;DHT22;13153;52.316;21.166;2023-12-20T01:41:25;6.90;99.90
25208;DHT22;13153;52.316;21.166;2023-12-20T01:43:51;7.00;99.90
25208;DHT22;13153;52.316;21.166;2023-12-20T01:46:19;6.90;99.90
25208;DHT22;13153;52.316;21.166;2023-12-20T01:48:45;7.00;99.90
25208;DHT22;13153;52.316;21.166;2023-12-20T01:51:12;6.90;99.90
25208;DHT22;13153;52.316;21.166;2023-12-20T01:53:38;6.90;99.90
25208;DHT22;13153;52.316;21.166;2023-12-20T01:56:06;6.90;99.90
25208;DHT22;13153;52.316;21.166;2023-12-20T01:58:34;7.00;99.90
25208;DHT22;13153;52.316;21.166;2023-12-20T02:01:01;7.00;99.90
25208;DHT22;13153;52.316;21.166;2023-12-20T02:03:26;7.00;99.90
25208;DHT22;13153;52.316;21.166;2023-12-20T02:05:53;7.10;99.90
25208;DHT22;13153;52.316;21.166;2023-12-20T02:08:19;7.10;99.90
25208;DHT22;13153;52.316;21.166;2023-12-20T02:10:44;7.10;99.90
25208;DHT22;13153;52.316;21.166;2023-12-20T02:13:10;7.10;99.90
25208;DHT22;13153;52.316;21.166;2023-12-20T02:15:36;7.10;99.90
25208;DHT22;13153;52.316;21.166;2023-12-20T02:18:07;7.10;99.90
25208;DHT22;13153;52.316;21.166;2023-12-20T02:20:32;7.10;99.90
25208;DHT22;13153;52.316;21.166;2023-12-20T02:22:58;7.10;99.90
25208;DHT22;13153;52.316;21.166;2023-12-20T02:25:24;7.10;99.90
25208;DHT22;13153;52.316;21.166;2023-12-20T02:27:50;7.10;99.90
25208;DHT22;13153;52.316;21.166;2023-12-20T02:30:16;7.00;99.90
25208;DHT22;13153;52.316;21.166;2023-12-20T02:32:41;7.10;99.90
25208;DHT22;13153;52.316;21.166;2023-12-20T02:35:07;7.10;99.90
25208;DHT22;13153;52.316;21.166;2023-12-20T02:37:33;7.10;99.90
25208;DHT22;13153;52.316;21.166;2023-12-20T02:39:59;7.10;99.90
25208;DHT22;13153;52.316;21.166;2023-12-20T02:42:25;7.10;99.90
25208;DHT22;13153;52.316;21.166;2023-12-20T02:44:51;7.10;99.90
25208;DHT22;13153;52.316;21.166;2023-12-20T02:47:16;7.10;99.90
25208;DHT22;13153;52.316;21.166;2023-12-20T02:49:42;7.10;99.90
25208;DHT22;13153;52.316;21.166;2023-12-20T02:52:08;7.10;99.90
25208;DHT22;13153;52.316;21.166;2023-12-20T02:54:34;7.10;99.90
25208;DHT22;13153;52.316;21.166;2023-12-20T02:56:59;7.10;99.90
25208;DHT22;13153;52.316;21.166;2023-12-20T02:59:25;7.10;99.90
25208;DHT22;13153;52.316;21.166;2023-12-20T03:01:51;7.10;99.90
25208;DHT22;13153;52.316;21.166;2023-12-20T03:04:16;7.10;99.90
25208;DHT22;13153;52.316;21.166;2023-12-20T03:06:42;7.10;99.90
25208;DHT22;13153;52.316;21.166;2023-12-20T03:09:08;7.10;99.90
25208;DHT22;13153;52.316;21.166;2023-12-20T03:11:33;7.10;99.90
25208;DHT22;13153;52.316;21.166;2023-12-20T03:13:59;7.10;99.90
25208;DHT22;13153;52.316;21.166;2023-12-20T03:16:25;7.10;99.90
25208;DHT22;13153;52.316;21.166;2023-12-20T03:18:51;7.10;99.90
25208;DHT22;13153;52.316;21.166;2023-12-20T03:21:16;7.10;99.90
25208;DHT22;13153;52.316;21.166;2023-12-20T03:23:42;7.10;99.90
25208;DHT22;13153;52.316;21.166;2023-12-20T03:26:09;7.10;99.90
25208;DHT22;13153;52.316;21.166;2023-12-20T03:28:36;7.10;99.90
25208;DHT22;13153;52.316;21.166;2023-12-20T03:31:02;7.10;99.90
25208;DHT22;13153;52.316;21.166;2023-12-20T03:33:29;7.10;99.90
25208;DHT22;13153;52.316;21.166;2023-12-20T03:35:55;7.10;99.90
25208;DHT22;13153;52.316;21.166;2023-12-20T03:38:21;7.10;99.90
25208;DHT22;13153;52.316;21.166;2023-12-20T03:40:49;7.00;99.90
25208;DHT22;13153;52.316;21.166;2023-12-20T03:43:15;7.00;99.90
25208;DHT22;13153;52.316;21.166;2023-12-20T03:45:42;7.00;99.90
25208;DHT22;13153;52.316;21.166;2023-12-20T03:48:08;7.00;99.90
25208;DHT22;13153;52.316;21.166;2023-12-20T03:50:34;7.00;99.90
25208;DHT22;13153;52.316;21.166;2023-12-20T03:53:00;7.00;99.90
25208;DHT22;13153;52.316;21.166;2023-12-20T03:55:26;7.00;99.90
25208;DHT22;13153;52.316;21.166;2023-12-20T03:57:52;7.00;99.90
25208;DHT22;13153;52.316;21.166;2023-12-20T04:00:18;7.00;99.90
25208;DHT22;13153;52.316;21.166;2023-12-20T04:02:44;7.00;99.90
25208;DHT22;13153;52.316;21.166;2023-12-20T04:05:10;7.00;99.90
25208;DHT22;13153;52.316;21.166;2023-12-20T04:07:36;6.90;99.90
25208;DHT22;13153;52.316;21.166;2023-12-20T04:10:02;7.00;99.90
25208;DHT22;13153;52.316;21.166;2023-12-20T04:12:32;7.00;99.90
25208;DHT22;13153;52.316;21.166;2023-12-20T04:14:58;7.00;99.90
25208;DHT22;13153;52.316;21.166;2023-12-20T04:17:24;7.00;99.90
25208;DHT22;13153;52.316;21.166;2023-12-20T04:19:50;7.00;99.90
25208;DHT22;13153;52.316;21.166;2023-12-20T04:22:17;7.10;99.90
25208;DHT22;13153;52.316;21.166;2023-12-20T04:24:44;7.10;99.90
25208;DHT22;13153;52.316;21.166;2023-12-20T04:27:10;7.00;99.90
25208;DHT22;13153;52.316;21.166;2023-12-20T04:29:36;7.00;99.90
25208;DHT22;13153;52.316;21.166;2023-12-20T04:32:02;7.00;99.90
25208;DHT22;13153;52.316;21.166;2023-12-20T04:34:28;7.00;99.90
25208;DHT22;13153;52.316;21.166;2023-12-20T04:36:54;7.10;99.90
25208;DHT22;13153;52.316;21.166;2023-12-20T04:39:19;7.00;99.90
25208;DHT22;13153;52.316;21.166;2023-12-20T04:41:45;7.10;99.90
25208;DHT22;13153;52.316;21.166;2023-12-20T04:44:13;7.10;99.90
25208;DHT22;13153;52.316;21.166;2023-12-20T04:46:39;7.10;99.90
25208;DHT22;13153;52.316;21.166;2023-12-20T04:49:05;7.10;99.90
25208;DHT22;13153;52.316;21.166;2023-12-20T04:51:33;7.10;99.90
25208;DHT22;13153;52.316;21.166;2023-12-20T04:53:59;7.10;99.90
25208;DHT22;13153;52.316;21.166;2023-12-20T04:56:25;7.10;99.90
25208;DHT22;13153;52.316;21.166;2023-12-20T04:58:51;7.10;99.90
25208;DHT22;13153;52.316;21.166;2023-12-20T05:01:17;7.10;99.90
25208;DHT22;13153;52.316;21.166;2023-12-20T05:03:43;7.10;99.90
25208;DHT22;13153;52.316;21.166;2023-12-20T05:06:10;7.10;99.90
25208;DHT22;13153;52.316;21.166;2023-12-20T05:08:36;7.10;99.90
25208;DHT22;13153;52.316;21.166;2023-12-20T05:11:02;7.10;99.90
25208;DHT22;13153;52.316;21.166;2023-12-20T05:13:28;7.10;99.90
25208;DHT22;13153;52.316;21.166;2023-12-20T05:15:54;7.10;99.90
25208;DHT22;13153;52.316;21.166;2023-12-20T05:18:21;7.00;99.90
25208;DHT22;13153;52.316;21.166;2023-12-20T05:20:47;7.10;99.90
25208;DHT22;13153;52.316;21.166;2023-12-20T05:23:13;7.10;99.90
25208;DHT22;13153;52.316;21.166;2023-12-20T05:25:39;7.00;99.90
25208;DHT22;13153;52.316;21.166;2023-12-20T05:28:05;7.00;99.90
25208;DHT22;13153;52.316;21.166;2023-12-20T05:30:31;7.00;99.90
25208;DHT22;13153;52.316;21.166;2023-12-20T05:32:57;7.00;99.90
25208;DHT22;13153;52.316;21.166;2023-12-20T05:35:22;7.00;99.90
25208;DHT22;13153;52.316;21.166;2023-12-20T05:37:49;7.00;99.90
25208;DHT22;13153;52.316;21.166;2023-12-20T05:40:15;7.00;99.90
25208;DHT22;13153;52.316;21.166;2023-12-20T05:42:41;7.00;99.90
25208;DHT22;13153;52.316;21.166;2023-12-20T05:45:07;7.00;99.90
25208;DHT22;13153;52.316;21.166;2023-12-20T05:47:33;7.00;99.90
25208;DHT22;13153;52.316;21.166;2023-12-20T05:49:59;7.00;99.90
25208;DHT22;13153;52.316;21.166;2023-12-20T05:52:24;7.00;99.90
25208;DHT22;13153;52.316;21.166;2023-12-20T05:54:50;7.00;99.90
25208;DHT22;13153;52.316;21.166;2023-12-20T05:57:16;7.00;99.90
25208;DHT22;13153;52.316;21.166;2023-12-20T05:59:42;7.10;99.90
25208;DHT22;13153;52.316;21.166;2023-12-20T06:02:07;7.00;99.90
25208;DHT22;13153;52.316;21.166;2023-12-20T06:04:33;7.00;99.90
25208;DHT22;13153;52.316;21.166;2023-12-20T06:06:59;7.00;99.90
25208;DHT22;13153;52.316;21.166;2023-12-20T06:09:26;7.00;99.90
25208;DHT22;13153;52.316;21.166;2023-12-20T06:11:52;7.00;99.90
25208;DHT22;13153;52.316;21.166;2023-12-20T06:14:18;7.00;99.90
25208;DHT22;13153;52.316;21.166;2023-12-20T06:16:45;7.00;99.90
25208;DHT22;13153;52.316;21.166;2023-12-20T06:19:11;7.00;99.90
25208;DHT22;13153;52.316;21.166;2023-12-20T06:21:37;7.00;99.90
25208;DHT22;13153;52.316;21.166;2023-12-20T06:24:03;7.00;99.90
25208;DHT22;13153;52.316;21.166;2023-12-20T06:26:29;6.90;99.90
25208;DHT22;13153;52.316;21.166;2023-12-20T06:28:55;7.00;99.90
25208;DHT22;13153;52.316;21.166;2023-12-20T06:31:20;6.90;99.90
25208;DHT22;13153;52.316;21.166;2023-12-20T06:33:46;6.90;99.90
25208;DHT22;13153;52.316;21.166;2023-12-20T06:36:13;7.00;99.90
25208;DHT22;13153;52.316;21.166;2023-12-20T06:38:39;7.00;99.90
25208;DHT22;13153;52.316;21.166;2023-12-20T06:41:05;7.00;99.90
25208;DHT22;13153;52.316;21.166;2023-12-20T06:43:31;7.00;99.90
25208;DHT22;13153;52.316;21.166;2023-12-20T06:45:58;7.00;99.90
25208;DHT22;13153;52.316;21.166;2023-12-20T06:48:24;7.00;99.90
25208;DHT22;13153;52.316;21.166;2023-12-20T06:50:49;7.00;99.90
25208;DHT22;13153;52.316;21.166;2023-12-20T06:53:15;7.00;99.90
25208;DHT22;13153;52.316;21.166;2023-12-20T06:55:41;7.00;99.90
25208;DHT22;13153;52.316;21.166;2023-12-20T06:58:07;7.00;99.90
25208;DHT22;13153;52.316;21.166;2023-12-20T07:00:34;7.00;99.90
25208;DHT22;13153;52.316;21.166;2023-12-20T07:03:00;7.00;99.90
25208;DHT22;13153;52.316;21.166;2023-12-20T07:05:26;7.00;99.90
25208;DHT22;13153;52.316;21.166;2023-12-20T07:07:52;6.90;99.90
25208;DHT22;13153;52.316;21.166;2023-12-20T07:10:17;6.90;99.90
25208;DHT22;13153;52.316;21.166;2023-12-20T07:12:43;7.00;99.90
25208;DHT22;13153;52.316;21.166;2023-12-20T07:15:09;7.00;99.90
25208;DHT22;13153;52.316;21.166;2023-12-20T07:17:35;7.00;99.90
25208;DHT22;13153;52.316;21.166;2023-12-20T07:20:01;7.00;99.90
25208;DHT22;13153;52.316;21.166;2023-12-20T07:22:30;7.00;99.90
25208;DHT22;13153;52.316;21.166;2023-12-20T07:24:59;7.00;99.90
25208;DHT22;13153;52.316;21.166;2023-12-20T07:27:25;7.00;99.90
25208;DHT22;13153;52.316;21.166;2023-12-20T07:29:51;7.00;99.90
25208;DHT22;13153;52.316;21.166;2023-12-20T07:32:17;7.00;99.90
25208;DHT22;13153;52.316;21.166;2023-12-20T07:34:43;7.00;99.90
25208;DHT22;13153;52.316;21.166;2023-12-20T07:37:09;7.00;99.90
25208;DHT22;13153;52.316;21.166;2023-12-20T07:39:40;7.00;99.90
25208;DHT22;13153;52.316;21.166;2023-12-20T07:42:09;7.00;99.90
25208;DHT22;13153;52.316;21.166;2023-12-20T07:44:35;7.10;99.90
25208;DHT22;13153;52.316;21.166;2023-12-20T07:47:01;7.00;99.90
25208;DHT22;13153;52.316;21.166;2023-12-20T07:49:28;7.10;99.90
25208;DHT22;13153;52.316;21.166;2023-12-20T07:51:53;7.10;99.90
25208;DHT22;13153;52.316;21.166;2023-12-20T07:54:19;7.10;99.90
25208;DHT22;13153;52.316;21.166;2023-12-20T07:56:46;7.10;99.90
25208;DHT22;13153;52.316;21.166;2023-12-20T07:59:12;7.10;99.90
25208;DHT22;13153;52.316;21.166;2023-12-20T08:01:38;7.10;99.90
25208;DHT22;13153;52.316;21.166;2023-12-20T08:04:04;7.10;99.90
25208;DHT22;13153;52.316;21.166;2023-12-20T08:06:29;7.10;99.90
25208;DHT22;13153;52.316;21.166;2023-12-20T08:08:55;7.10;99.90
25208;DHT22;13153;52.316;21.166;2023-12-20T08:11:21;7.10;99.90
25208;DHT22;13153;52.316;21.166;2023-12-20T08:13:46;7.10;99.90
25208;DHT22;13153;52.316;21.166;2023-12-20T08:16:12;7.10;99.90
25208;DHT22;13153;52.316;21.166;2023-12-20T08:18:39;7.10;99.90
25208;DHT22;13153;52.316;21.166;2023-12-20T08:21:05;7.10;99.90
25208;DHT22;13153;52.316;21.166;2023-12-20T08:23:34;7.10;99.90
25208;DHT22;13153;52.316;21.166;2023-12-20T08:26:04;7.10;99.90
25208;DHT22;13153;52.316;21.166;2023-12-20T08:28:31;7.10;99.90
25208;DHT22;13153;52.316;21.166;2023-12-20T08:30:57;7.20;99.90
25208;DHT22;13153;52.316;21.166;2023-12-20T08:33:23;7.20;99.90
25208;DHT22;13153;52.316;21.166;2023-12-20T08:35:48;7.20;99.90
25208;DHT22;13153;52.316;21.166;2023-12-20T08:38:14;7.20;99.90
25208;DHT22;13153;52.316;21.166;2023-12-20T08:40:40;7.20;99.90
25208;DHT22;13153;52.316;21.166;2023-12-20T08:43:05;7.10;99.90
25208;DHT22;13153;52.316;21.166;2023-12-20T08:45:31;7.20;99.90
25208;DHT22;13153;52.316;21.166;2023-12-20T08:47:57;7.10;99.90
25208;DHT22;13153;52.316;21.166;2023-12-20T08:50:23;7.20;99.90
25208;DHT22;13153;52.316;21.166;2023-12-20T08:52:48;7.20;99.90
25208;DHT22;13153;52.316;21.166;2023-12-20T08:55:14;7.20;99.90
25208;DHT22;13153;52.316;21.166;2023-12-20T08:57:41;7.20;99.90
25208;DHT22;13153;52.316;21.166;2023-12-20T09:00:08;7.20;99.90
25208;DHT22;13153;52.316;21.166;2023-12-20T09:02:34;7.30;99.90
25208;DHT22;13153;52.316;21.166;2023-12-20T09:05:02;7.20;99.90
25208;DHT22;13153;52.316;21.166;2023-12-20T09:07:28;7.20;99.90
25208;DHT22;13153;52.316;21.166;2023-12-20T09:09:57;7.20;99.90
25208;DHT22;13153;52.316;21.166;2023-12-20T09:12:24;7.20;99.90
25208;DHT22;13153;52.316;21.166;2023-12-20T09:14:51;7.20;99.90
25208;DHT22;13153;52.316;21.166;2023-12-20T09:17:18;7.20;99.90
25208;DHT22;13153;52.316;21.166;2023-12-20T09:19:44;7.20;99.90
25208;DHT22;13153;52.316;21.166;2023-12-20T09:22:11;7.20;99.90
25208;DHT22;13153;52.316;21.166;2023-12-20T09:24:37;7.20;99.90
25208;DHT22;13153;52.316;21.166;2023-12-20T09:27:06;7.20;99.90
25208;DHT22;13153;52.316;21.166;2023-12-20T09:29:32;7.20;99.90
25208;DHT22;13153;52.316;21.166;2023-12-20T09:31:58;7.10;99.90
25208;DHT22;13153;52.316;21.166;2023-12-20T09:34:24;7.10;99.90
25208;DHT22;13153;52.316;21.166;2023-12-20T09:36:51;7.10;99.90
25208;DHT22;13153;52.316;21.166;2023-12-20T09:39:19;7.10;99.90
25208;DHT22;13153;52.316;21.166;2023-12-20T09:44:28;7.20;99.90
25208;DHT22;13153;52.316;21.166;2023-12-20T09:46:55;7.20;99.90
25208;DHT22;13153;52.316;21.166;2023-12-20T09:49:21;7.20;99.90
25208;DHT22;13153;52.316;21.166;2023-12-20T09:51:50;7.20;99.90
25208;DHT22;13153;52.316;21.166;2023-12-20T09:54:17;7.20;99.90
25208;DHT22;13153;52.316;21.166;2023-12-20T09:56:47;7.20;99.90
25208;DHT22;13153;52.316;21.166;2023-12-20T09:59:13;7.20;99.90
25208;DHT22;13153;52.316;21.166;2023-12-20T10:01:41;7.20;99.90
25208;DHT22;13153;52.316;21.166;2023-12-20T10:04:08;7.30;99.90
25208;DHT22;13153;52.316;21.166;2023-12-20T10:06:44;7.30;99.90
25208;DHT22;13153;52.316;21.166;2023-12-20T10:09:12;7.30;99.90
25208;DHT22;13153;52.316;21.166;2023-12-20T10:11:39;7.30;99.90
25208;DHT22;13153;52.316;21.166;2023-12-20T10:14:06;7.30;99.90
25208;DHT22;13153;52.316;21.166;2023-12-20T10:16:33;7.40;99.90
25208;DHT22;13153;52.316;21.166;2023-12-20T10:19:00;7.40;99.90
25208;DHT22;13153;52.316;21.166;2023-12-20T10:21:29;7.40;99.90
25208;DHT22;13153;52.316;21.166;2023-12-20T10:23:56;7.40;99.90
25208;DHT22;13153;52.316;21.166;2023-12-20T10:26:24;7.30;99.90
25208;DHT22;13153;52.316;21.166;2023-12-20T10:28:55;7.30;99.90
25208;DHT22;13153;52.316;21.166;2023-12-20T10:31:32;7.40;99.90
25208;DHT22;13153;52.316;21.166;2023-12-20T10:34:01;7.30;99.90
25208;DHT22;13153;52.316;21.166;2023-12-20T10:36:34;7.30;99.90
25208;DHT22;13153;52.316;21.166;2023-12-20T10:39:01;7.30;99.90
25208;DHT22;13153;52.316;21.166;2023-12-20T10:41:32;7.30;99.90
25208;DHT22;13153;52.316;21.166;2023-12-20T10:44:03;7.30;99.90
25208;DHT22;13153;52.316;21.166;2023-12-20T10:46:33;7.30;99.90
25208;DHT22;13153;52.316;21.166;2023-12-20T10:49:02;7.30;99.90
25208;DHT22;13153;52.316;21.166;2023-12-20T10:51:31;7.30;99.90
25208;DHT22;13153;52.316;21.166;2023-12-20T10:53:59;7.30;99.90
25208;DHT22;13153;52.316;21.166;2023-12-20T10:56:26;7.20;99.90
25208;DHT22;13153;52.316;21.166;2023-12-20T10:58:59;7.20;99.90
25208;DHT22;13153;52.316;21.166;2023-12-20T11:01:29;7.20;99.90
25208;DHT22;13153;52.316;21.166;2023-12-20T11:03:55;7.30;99.90
25208;DHT22;13153;52.316;21.166;2023-12-20T11:09:20;7.20;99.90
25208;DHT22;13153;52.316;21.166;2023-12-20T11:12:32;7.30;99.90
25208;DHT22;13153;52.316;21.166;2023-12-20T11:15:01;7.20;99.90
25208;DHT22;13153;52.316;21.166;2023-12-20T11:17:29;7.20;99.90
25208;DHT22;13153;52.316;21.166;2023-12-20T11:22:29;7.20;99.90
25208;DHT22;13153;52.316;21.166;2023-12-20T11:27:37;7.30;99.90
25208;DHT22;13153;52.316;21.166;2023-12-20T11:30:06;7.30;99.90
25208;DHT22;13153;52.316;21.166;2023-12-20T11:32:37;7.40;99.90
25208;DHT22;13153;52.316;21.166;2023-12-20T11:37:37;7.40;99.90
25208;DHT22;13153;52.316;21.166;2023-12-20T11:40:11;7.40;99.90
25208;DHT22;13153;52.316;21.166;2023-12-20T11:42:40;7.30;99.90
25208;DHT22;13153;52.316;21.166;2023-12-20T11:45:13;7.30;99.90
25208;DHT22;13153;52.316;21.166;2023-12-20T11:47:47;7.30;99.90
25208;DHT22;13153;52.316;21.166;2023-12-20T11:50:15;7.30;99.90
25208;DHT22;13153;52.316;21.166;2023-12-20T11:52:41;7.30;99.90
25208;DHT22;13153;52.316;21.166;2023-12-20T11:55:07;7.30;99.90
25208;DHT22;13153;52.316;21.166;2023-12-20T11:57:34;7.30;99.90
25208;DHT22;13153;52.316;21.166;2023-12-20T12:00:02;7.30;99.90
25208;DHT22;13153;52.316;21.166;2023-12-20T12:02:28;7.30;99.90
25208;DHT22;13153;52.316;21.166;2023-12-20T12:04:54;7.30;99.90
25208;DHT22;13153;52.316;21.166;2023-12-20T12:07:21;7.40;99.90
25208;DHT22;13153;52.316;21.166;2023-12-20T12:09:47;7.40;99.90
25208;DHT22;13153;52.316;21.166;2023-12-20T12:12:13;7.40;99.90
25208;DHT22;13153;52.316;21.166;2023-12-20T12:14:40;7.30;99.90
25208;DHT22;13153;52.316;21.166;2023-12-20T12:17:15;7.30;99.90
25208;DHT22;13153;52.316;21.166;2023-12-20T12:19:41;7.30;99.90
25208;DHT22;13153;52.316;21.166;2023-12-20T12:22:08;7.30;99.90
25208;DHT22;13153;52.316;21.166;2023-12-20T12:24:45;7.30;99.90
25208;DHT22;13153;52.316;21.166;2023-12-20T12:27:12;7.20;99.90
25208;DHT22;13153;52.316;21.166;2023-12-20T12:29:39;7.20;99.90
25208;DHT22;13153;52.316;21.166;2023-12-20T12:32:07;7.20;99.90
25208;DHT22;13153;52.316;21.166;2023-12-20T12:34:36;7.20;99.90
25208;DHT22;13153;52.316;21.166;2023-12-20T12:37:03;7.20;99.90
25208;DHT22;13153;52.316;21.166;2023-12-20T12:39:30;7.20;99.90
25208;DHT22;13153;52.316;21.166;2023-12-20T12:41:56;7.20;99.90
25208;DHT22;13153;52.316;21.166;2023-12-20T12:44:22;7.20;99.90
25208;DHT22;13153;52.316;21.166;2023-12-20T12:46:51;7.10;99.90
25208;DHT22;13153;52.316;21.166;2023-12-20T12:49:19;7.10;99.90
25208;DHT22;13153;52.316;21.166;2023-12-20T12:51:46;7.10;99.90
25208;DHT22;13153;52.316;21.166;2023-12-20T12:54:12;7.10;99.90
25208;DHT22;13153;52.316;21.166;2023-12-20T12:56:39;7.10;99.90
25208;DHT22;13153;52.316;21.166;2023-12-20T12:59:05;7.00;99.90
25208;DHT22;13153;52.316;21.166;2023-12-20T13:01:31;7.00;99.90
25208;DHT22;13153;52.316;21.166;2023-12-20T13:03:57;6.90;99.90
25208;DHT22;13153;52.316;21.166;2023-12-20T13:06:23;6.90;99.90
25208;DHT22;13153;52.316;21.166;2023-12-20T13:08:49;6.90;99.90
25208;DHT22;13153;52.316;21.166;2023-12-20T13:11:15;6.90;99.90
25208;DHT22;13153;52.316;21.166;2023-12-20T13:13:41;6.80;99.90
25208;DHT22;13153;52.316;21.166;2023-12-20T13:16:07;6.80;99.90
25208;DHT22;13153;52.316;21.166;2023-12-20T13:18:33;6.80;99.90
25208;DHT22;13153;52.316;21.166;2023-12-20T13:20:58;6.80;99.90
25208;DHT22;13153;52.316;21.166;2023-12-20T13:23:24;6.80;99.90
25208;DHT22;13153;52.316;21.166;2023-12-20T13:25:50;6.70;99.90
25208;DHT22;13153;52.316;21.166;2023-12-20T13:28:16;6.70;99.90
25208;DHT22;13153;52.316;21.166;2023-12-20T13:30:41;6.70;99.90
25208;DHT22;13153;52.316;21.166;2023-12-20T13:33:07;6.80;99.90
25208;DHT22;13153;52.316;21.166;2023-12-20T13:35:34;6.80;99.90
25208;DHT22;13153;52.316;21.166;2023-12-20T13:38:00;6.80;99.90
25208;DHT22;13153;52.316;21.166;2023-12-20T13:40:26;6.80;99.90
25208;DHT22;13153;52.316;21.166;2023-12-20T13:42:53;6.80;99.90
25208;DHT22;13153;52.316;21.166;2023-12-20T13:45:20;6.90;99.90
25208;DHT22;13153;52.316;21.166;2023-12-20T13:47:46;6.90;99.90
25208;DHT22;13153;52.316;21.166;2023-12-20T13:50:11;6.80;99.90
25208;DHT22;13153;52.316;21.166;2023-12-20T13:52:38;6.80;99.90
25208;DHT22;13153;52.316;21.166;2023-12-20T13:55:04;6.80;99.90
25208;DHT22;13153;52.316;21.166;2023-12-20T13:57:31;6.80;99.90
25208;DHT22;13153;52.316;21.166;2023-12-20T13:59:57;6.80;99.90
25208;DHT22;13153;52.316;21.166;2023-12-20T14:02:23;6.80;99.90
25208;DHT22;13153;52.316;21.166;2023-12-20T14:04:49;6.80;99.90
25208;DHT22;13153;52.316;21.166;2023-12-20T14:07:15;6.80;99.90
25208;DHT22;13153;52.316;21.166;2023-12-20T14:09:41;6.80;99.90
25208;DHT22;13153;52.316;21.166;2023-12-20T14:12:14;6.80;99.90
25208;DHT22;13153;52.316;21.166;2023-12-20T14:14:40;6.70;99.90
25208;DHT22;13153;52.316;21.166;2023-12-20T14:17:06;6.70;99.90
25208;DHT22;13153;52.316;21.166;2023-12-20T14:19:34;6.80;99.90
25208;DHT22;13153;52.316;21.166;2023-12-20T14:22:00;6.80;99.90
25208;DHT22;13153;52.316;21.166;2023-12-20T14:24:27;6.80;99.90
25208;DHT22;13153;52.316;21.166;2023-12-20T14:26:53;6.80;99.90
25208;DHT22;13153;52.316;21.166;2023-12-20T14:29:19;6.90;99.90
25208;DHT22;13153;52.316;21.166;2023-12-20T14:31:45;6.80;99.90
25208;DHT22;13153;52.316;21.166;2023-12-20T14:34:10;6.80;99.90
25208;DHT22;13153;52.316;21.166;2023-12-20T14:36:37;6.80;99.90
25208;DHT22;13153;52.316;21.166;2023-12-20T14:39:03;6.70;99.90
25208;DHT22;13153;52.316;21.166;2023-12-20T14:41:30;6.70;99.90
25208;DHT22;13153;52.316;21.166;2023-12-20T14:43:56;6.70;99.90
25208;DHT22;13153;52.316;21.166;2023-12-20T14:46:22;6.70;99.90
25208;DHT22;13153;52.316;21.166;2023-12-20T14:48:48;6.70;99.90
25208;DHT22;13153;52.316;21.166;2023-12-20T14:51:15;6.70;99.90
25208;DHT22;13153;52.316;21.166;2023-12-20T14:53:41;6.70;99.90
25208;DHT22;13153;52.316;21.166;2023-12-20T14:56:07;6.60;99.90
25208;DHT22;13153;52.316;21.166;2023-12-20T14:58:33;6.60;99.90
25208;DHT22;13153;52.316;21.166;2023-12-20T15:01:00;6.70;99.90
25208;DHT22;13153;52.316;21.166;2023-12-20T15:03:26;6.70;99.90
25208;DHT22;13153;52.316;21.166;2023-12-20T15:05:52;6.70;99.90
25208;DHT22;13153;52.316;21.166;2023-12-20T15:08:17;6.70;99.90
25208;DHT22;13153;52.316;21.166;2023-12-20T15:10:43;6.80;99.90
25208;DHT22;13153;52.316;21.166;2023-12-20T15:13:09;6.70;99.90
25208;DHT22;13153;52.316;21.166;2023-12-20T15:15:34;6.70;99.90
25208;DHT22;13153;52.316;21.166;2023-12-20T15:18:00;6.70;99.90
25208;DHT22;13153;52.316;21.166;2023-12-20T15:20:28;6.80;99.90
25208;DHT22;13153;52.316;21.166;2023-12-20T15:22:54;6.70;99.90
25208;DHT22;13153;52.316;21.166;2023-12-20T15:25:20;6.70;99.90
25208;DHT22;13153;52.316;21.166;2023-12-20T15:27:48;6.70;99.90
25208;DHT22;13153;52.316;21.166;2023-12-20T15:30:21;6.70;99.90
25208;DHT22;13153;52.316;21.166;2023-12-20T15:32:50;6.70;99.90
25208;DHT22;13153;52.316;21.166;2023-12-20T15:35:16;6.70;99.90
25208;DHT22;13153;52.316;21.166;2023-12-20T15:37:42;6.60;99.90
25208;DHT22;13153;52.316;21.166;2023-12-20T15:40:09;6.60;99.90